createdAt,value
2024-01-25T00:02:37.474Z,7.01
2024-01-25T00:05:40.891Z,6.89
2024-01-25T00:08:45.445Z,6.89
2024-01-25T00:11:51.453Z,6.78
2024-01-25T00:14:56.158Z,6.80
2024-01-25T00:17:59.520Z,6.64
2024-01-25T00:21:04.000Z,6.63
2024-01-25T00:24:08.549Z,6.61
2024-01-25T00:27:11.736Z,6.58
2024-01-25T00:30:18.942Z,6.63
2024-01-25T00:33:22.128Z,6.56
2024-01-25T00:36:26.630Z,6.63
2024-01-25T00:39:30.057Z,6.71
2024-01-25T00:42:57.034Z,6.69
2024-01-25T00:46:01.780Z,6.78
2024-01-25T00:49:05.541Z,6.62
2024-01-25T00:52:09.745Z,6.61
2024-01-25T00:55:14.341Z,6.52
2024-01-25T00:58:19.161Z,6.43
2024-01-25T01:01:24.385Z,6.40
2024-01-25T01:04:31.111Z,6.29
2024-01-25T01:07:35.061Z,6.27
2024-01-25T01:10:38.177Z,6.28
2024-01-25T01:13:43.162Z,6.24
2024-01-25T01:16:46.253Z,6.24
2024-01-25T01:19:54.584Z,6.26
2024-01-25T01:22:57.997Z,6.38
2024-01-25T01:26:04.348Z,6.29
2024-01-25T01:29:07.332Z,6.35
2024-01-25T01:32:10.595Z,6.29
2024-01-25T01:35:13.399Z,6.27
2024-01-25T01:38:16.807Z,6.34
2024-01-25T01:41:19.638Z,6.26
2024-01-25T01:44:23.037Z,6.32
2024-01-25T01:47:26.203Z,6.27
2024-01-25T01:50:30.029Z,6.27
2024-01-25T01:53:34.783Z,6.48
2024-01-25T01:56:43.573Z,6.44
2024-01-25T01:59:48.260Z,6.37
2024-01-25T02:02:51.778Z,6.40
2024-01-25T02:05:56.269Z,6.52
2024-01-25T02:09:00.134Z,6.33
2024-01-25T02:12:04.309Z,6.41
2024-01-25T02:15:07.507Z,6.33
2024-01-25T02:18:11.352Z,6.21
2024-01-25T02:21:16.086Z,6.27
2024-01-25T02:24:19.410Z,6.30
2024-01-25T02:27:23.084Z,6.19
2024-01-25T02:30:26.667Z,6.30
2024-01-25T02:33:30.019Z,6.25
2024-01-25T02:36:33.606Z,6.41
2024-01-25T02:39:36.759Z,6.27
2024-01-25T02:42:40.627Z,6.39
2024-01-25T02:45:44.894Z,6.49
2024-01-25T02:48:48.722Z,6.50
2024-01-25T02:51:52.149Z,6.55
2024-01-25T02:54:55.726Z,6.47
2024-01-25T02:57:59.038Z,6.40
2024-01-25T03:01:03.713Z,6.50
2024-01-25T03:04:09.116Z,6.55
2024-01-25T03:07:12.855Z,6.52
2024-01-25T03:10:16.010Z,6.46
2024-01-25T03:13:20.808Z,6.43
2024-01-25T03:16:23.930Z,6.52
2024-01-25T03:19:28.861Z,6.58
2024-01-25T03:22:33.194Z,6.44
2024-01-25T03:25:36.524Z,6.51
2024-01-25T03:28:41.458Z,6.60
2024-01-25T03:31:47.643Z,6.53
2024-01-25T03:34:50.888Z,6.52
2024-01-25T03:37:54.400Z,6.59
2024-01-25T03:41:00.122Z,6.57
2024-01-25T03:44:04.634Z,6.59
2024-01-25T03:47:07.646Z,6.55
2024-01-25T03:50:11.214Z,6.65
2024-01-25T03:53:14.736Z,6.57
2024-01-25T03:56:20.945Z,6.60
2024-01-25T03:59:24.024Z,6.55
2024-01-25T04:02:28.119Z,6.61
2024-01-25T04:05:31.584Z,6.52
2024-01-25T04:08:34.811Z,6.68
2024-01-25T04:11:38.948Z,6.60
2024-01-25T04:14:42.912Z,6.57
2024-01-25T04:17:46.250Z,6.60
2024-01-25T04:20:50.935Z,6.59
2024-01-25T04:23:55.583Z,6.58
2024-01-25T04:26:58.658Z,6.63
2024-01-25T04:30:04.967Z,6.63
2024-01-25T04:33:08.168Z,6.76
2024-01-25T04:36:11.892Z,6.71
2024-01-25T04:39:15.463Z,6.67
2024-01-25T04:42:19.306Z,6.67
2024-01-25T04:45:22.370Z,6.75
2024-01-25T04:48:25.821Z,6.67
2024-01-25T04:51:29.293Z,6.66
2024-01-25T04:54:32.644Z,6.78
2024-01-25T04:57:35.820Z,6.73
2024-01-25T05:00:41.353Z,6.65
2024-01-25T05:03:45.438Z,6.54
2024-01-25T05:06:49.028Z,6.44
2024-01-25T05:09:53.581Z,6.31
2024-01-25T05:12:58.444Z,6.28
2024-01-25T05:16:04.595Z,5.86
2024-01-25T05:19:08.135Z,5.88
2024-01-25T05:22:11.544Z,5.79
2024-01-25T05:25:14.969Z,5.61
2024-01-25T05:28:18.086Z,5.74
2024-01-25T05:31:21.763Z,5.79
2024-01-25T05:34:26.272Z,5.88
2024-01-25T05:37:29.785Z,5.88
2024-01-25T05:40:32.965Z,6.05
2024-01-25T05:43:36.321Z,6.14
2024-01-25T05:46:40.303Z,6.26
2024-01-25T05:49:43.789Z,6.11
2024-01-25T05:52:47.016Z,6.17
2024-01-25T05:55:50.486Z,6.25
2024-01-25T05:58:56.031Z,6.34
2024-01-25T06:02:02.385Z,6.29
2024-01-25T06:05:06.140Z,6.26
2024-01-25T06:08:09.531Z,6.39
2024-01-25T06:11:12.889Z,6.30
2024-01-25T06:14:16.502Z,6.30
2024-01-25T06:17:19.806Z,6.16
2024-01-25T06:20:23.009Z,6.16
2024-01-25T06:23:26.664Z,6.22
2024-01-25T06:26:29.691Z,6.44
2024-01-25T06:29:33.069Z,6.36
2024-01-25T06:32:38.369Z,6.41
2024-01-25T06:35:41.794Z,6.64
2024-01-25T06:38:46.839Z,6.65
2024-01-25T06:41:50.083Z,6.63
2024-01-25T06:44:53.787Z,6.59
2024-01-25T06:47:59.990Z,6.62
2024-01-25T06:51:03.558Z,6.64
2024-01-25T06:54:07.259Z,6.66
2024-01-25T06:57:11.572Z,6.82
2024-01-25T07:00:19.818Z,6.88
2024-01-25T07:03:25.598Z,6.99
2024-01-25T07:06:31.871Z,6.94
2024-01-25T07:09:34.968Z,6.92
2024-01-25T07:12:38.344Z,6.91
2024-01-25T07:15:42.651Z,6.86
2024-01-25T07:18:47.580Z,6.96
2024-01-25T07:21:51.278Z,6.94
2024-01-25T07:24:54.893Z,6.78
2024-01-25T07:28:01.226Z,6.73
2024-01-25T07:31:05.733Z,6.58
2024-01-25T07:34:08.884Z,6.59
2024-01-25T07:37:13.746Z,6.60
2024-01-25T07:40:16.859Z,6.56
2024-01-25T07:43:20.234Z,6.46
2024-01-25T07:46:25.484Z,6.37
2024-01-25T07:49:29.386Z,6.49
2024-01-25T07:52:32.928Z,6.50
2024-01-25T07:55:36.447Z,6.65
2024-01-25T07:58:40.826Z,6.70
2024-01-25T08:01:44.239Z,6.64
2024-01-25T08:04:49.202Z,6.68
2024-01-25T08:07:52.975Z,6.59
2024-01-25T08:10:56.389Z,6.48
2024-01-25T08:13:59.801Z,6.54
2024-01-25T08:17:04.261Z,6.61
2024-01-25T08:20:10.394Z,6.65
2024-01-25T08:23:15.762Z,6.62
2024-01-25T08:26:20.271Z,6.62
2024-01-25T08:29:23.606Z,6.59
2024-01-25T08:32:27.541Z,6.62
2024-01-25T08:35:34.263Z,6.68
2024-01-25T08:38:38.714Z,6.73
2024-01-25T08:41:43.600Z,6.70
2024-01-25T08:44:50.801Z,6.81
2024-01-25T08:47:57.474Z,6.97
2024-01-25T08:51:01.349Z,6.97
2024-01-25T08:54:05.132Z,7.14
2024-01-25T08:57:08.161Z,7.19
2024-01-25T09:00:12.061Z,7.36
2024-01-25T09:03:18.164Z,7.42
2024-01-25T09:06:21.728Z,7.45
2024-01-25T09:09:24.906Z,7.45
2024-01-25T09:12:29.906Z,7.65
2024-01-25T09:15:33.064Z,7.86
2024-01-25T09:18:36.641Z,7.91
2024-01-25T09:21:42.237Z,7.88
2024-01-25T09:24:46.122Z,7.82
2024-01-25T09:27:49.893Z,7.94
2024-01-25T09:30:54.092Z,8.04
2024-01-25T09:34:00.776Z,8.20
2024-01-25T09:37:05.016Z,8.13
2024-01-25T09:40:09.207Z,8.03
2024-01-25T09:43:13.616Z,7.93
2024-01-25T09:46:17.370Z,7.99
2024-01-25T09:49:22.203Z,8.22
2024-01-25T09:52:29.042Z,8.20
2024-01-25T09:55:34.568Z,8.23
2024-01-25T09:58:43.945Z,8.33
2024-01-25T10:01:50.048Z,8.26
2024-01-25T10:04:56.845Z,8.48
2024-01-25T10:08:02.926Z,8.46
2024-01-25T10:11:07.418Z,8.36
2024-01-25T10:14:10.488Z,8.45
2024-01-25T10:17:14.070Z,8.45
2024-01-25T10:20:18.464Z,8.62
2024-01-25T10:23:23.891Z,8.52
2024-01-25T10:26:31.775Z,8.66
2024-01-25T10:29:36.078Z,8.79
2024-01-25T10:32:44.574Z,8.76
2024-01-25T10:35:51.665Z,8.71
2024-01-25T10:38:56.259Z,8.69
2024-01-25T10:42:02.961Z,8.65
2024-01-25T10:45:06.905Z,8.51
2024-01-25T10:48:10.211Z,8.58
2024-01-25T10:51:19.881Z,8.60
2024-01-25T10:54:23.441Z,8.49
2024-01-25T10:57:27.420Z,8.54
2024-01-25T11:00:32.960Z,8.49
2024-01-25T11:03:37.449Z,8.55
2024-01-25T11:06:40.934Z,8.69
2024-01-25T11:09:49.718Z,8.86
2024-01-25T11:12:58.668Z,8.74
2024-01-25T11:16:17.937Z,8.64
2024-01-25T11:19:22.899Z,8.58
2024-01-25T11:22:35.536Z,8.90
2024-01-25T11:25:39.386Z,8.96
2024-01-25T11:28:46.398Z,9.11
2024-01-25T11:31:53.169Z,9.11
2024-01-25T11:35:03.121Z,9.31
2024-01-25T11:38:06.449Z,9.09
2024-01-25T11:41:10.726Z,8.97
2024-01-25T11:44:14.978Z,9.03
2024-01-25T11:47:26.856Z,9.02
2024-01-25T11:50:31.982Z,9.30
2024-01-25T11:53:35.845Z,9.36
2024-01-25T11:56:43.532Z,9.51
2024-01-25T11:59:48.987Z,9.67
2024-01-25T12:02:54.417Z,9.92
2024-01-25T12:06:00.541Z,9.92
2024-01-25T12:09:11.056Z,9.86
2024-01-25T12:12:17.466Z,9.75
2024-01-25T12:15:21.557Z,10.02
2024-01-25T12:18:25.014Z,9.84
2024-01-25T12:21:28.700Z,10.11
2024-01-25T12:24:35.469Z,9.84
2024-01-25T12:27:42.399Z,10.18
2024-01-25T12:30:45.886Z,10.41
2024-01-25T12:33:48.917Z,10.18
2024-01-25T12:36:57.198Z,10.90
2024-01-25T12:40:02.345Z,11.28
2024-01-25T12:43:05.990Z,11.06
2024-01-25T12:46:18.354Z,11.25
2024-01-25T12:49:30.061Z,11.10
2024-01-25T12:52:33.704Z,11.52
2024-01-25T12:55:38.853Z,11.28
2024-01-25T12:58:42.116Z,11.23
2024-01-25T13:01:45.816Z,11.06
2024-01-25T13:04:49.313Z,10.68
2024-01-25T13:07:53.294Z,11.20
2024-01-25T13:10:56.510Z,10.37
2024-01-25T13:14:02.670Z,9.44
2024-01-25T13:17:05.868Z,9.36
2024-01-25T13:20:09.786Z,9.67
2024-01-25T13:23:12.791Z,9.56
2024-01-25T13:26:16.127Z,9.23
2024-01-25T13:29:19.137Z,9.44
2024-01-25T13:32:23.960Z,8.92
2024-01-25T13:35:27.244Z,8.71
2024-01-25T13:38:30.824Z,8.68
2024-01-25T13:41:34.457Z,8.71
2024-01-25T13:44:39.764Z,8.62
2024-01-25T13:47:45.803Z,8.31
2024-01-25T13:50:49.788Z,8.28
2024-01-25T13:53:52.998Z,8.07
2024-01-25T13:56:56.965Z,8.16
2024-01-25T14:00:00.003Z,8.09
2024-01-25T14:03:06.853Z,8.04
2024-01-25T14:06:13.983Z,8.05
2024-01-25T14:09:17.443Z,7.86
2024-01-25T14:12:21.118Z,7.90
2024-01-25T14:15:25.797Z,7.78
2024-01-25T14:18:31.393Z,7.93
2024-01-25T14:21:34.455Z,7.84
2024-01-25T14:24:38.711Z,7.68
2024-01-25T14:27:42.701Z,7.76
2024-01-25T14:30:47.561Z,7.65
2024-01-25T14:33:50.971Z,7.79
2024-01-25T14:36:54.830Z,7.65
2024-01-25T14:40:09.065Z,7.76
2024-01-25T14:43:22.304Z,7.87
2024-01-25T14:46:25.374Z,7.85
2024-01-25T14:49:31.814Z,7.84
2024-01-25T14:52:35.383Z,7.97
2024-01-25T14:55:39.618Z,8.00
2024-01-25T14:58:44.986Z,7.87
2024-01-25T15:01:50.122Z,7.96
2024-01-25T15:04:53.333Z,7.79
2024-01-25T15:07:57.957Z,7.69
2024-01-25T15:11:01.406Z,7.57
2024-01-25T15:14:05.619Z,8.00
2024-01-25T15:17:08.753Z,7.96
2024-01-25T15:20:12.492Z,7.94
2024-01-25T15:23:15.626Z,7.78
2024-01-25T15:26:19.146Z,7.85
2024-01-25T15:29:22.201Z,7.41
2024-01-25T15:32:25.589Z,7.40
2024-01-25T15:35:28.541Z,7.40
2024-01-25T15:38:32.096Z,7.29
2024-01-25T15:41:35.067Z,7.20
2024-01-25T15:44:38.504Z,7.21
2024-01-25T15:47:43.571Z,7.16
2024-01-25T15:50:47.150Z,7.19
2024-01-25T15:53:50.921Z,7.12
2024-01-25T15:56:54.276Z,7.15
2024-01-25T15:59:57.354Z,7.04
2024-01-25T16:03:01.384Z,7.03
2024-01-25T16:06:05.009Z,6.95
2024-01-25T16:09:08.168Z,6.81
2024-01-25T16:12:12.418Z,6.84
2024-01-25T16:15:15.598Z,6.73
2024-01-25T16:18:19.361Z,6.80
2024-01-25T16:21:24.451Z,6.74
2024-01-25T16:24:29.650Z,6.65
2024-01-25T16:27:35.580Z,6.72
2024-01-25T16:30:39.079Z,6.56
2024-01-25T16:33:42.294Z,6.45
2024-01-25T16:36:45.804Z,6.46
2024-01-25T16:39:49.113Z,6.42
2024-01-25T16:42:52.572Z,6.44
2024-01-25T16:45:55.811Z,6.42
2024-01-25T16:48:59.394Z,6.45
2024-01-25T16:52:02.504Z,6.47
2024-01-25T16:55:06.312Z,6.33
2024-01-25T16:58:09.517Z,6.24
2024-01-25T17:01:13.067Z,6.30
2024-01-25T17:04:16.890Z,6.21
2024-01-25T17:07:20.307Z,6.26
2024-01-25T17:10:24.180Z,6.16
2024-01-25T17:13:27.520Z,6.28
2024-01-25T17:16:30.594Z,5.99
2024-01-25T17:19:34.197Z,6.02
2024-01-25T17:22:37.912Z,5.84
2024-01-25T17:25:42.707Z,5.84
2024-01-25T17:28:45.879Z,5.81
2024-01-25T17:31:49.522Z,5.78
2024-01-25T17:34:52.759Z,5.68
2024-01-25T17:37:56.772Z,5.78
2024-01-25T17:41:00.017Z,5.70
2024-01-25T17:44:03.519Z,5.77
2024-01-25T17:47:06.889Z,5.79
2024-01-25T17:50:13.327Z,5.82
2024-01-25T17:53:18.770Z,5.87
2024-01-25T17:56:22.650Z,5.81
2024-01-25T17:59:28.398Z,5.78
2024-01-25T18:02:32.483Z,5.69
2024-01-25T18:05:36.548Z,5.83
2024-01-25T18:08:40.326Z,5.74
2024-01-25T18:11:46.543Z,5.67
2024-01-25T18:14:49.945Z,5.68
2024-01-25T18:17:53.956Z,5.66
2024-01-25T18:20:57.775Z,5.75
2024-01-25T18:24:03.004Z,5.66
2024-01-25T18:27:07.097Z,5.69
2024-01-25T18:30:15.455Z,5.79
2024-01-25T18:33:19.718Z,5.74
2024-01-25T18:36:24.243Z,5.69
2024-01-25T18:39:32.916Z,5.62
2024-01-25T18:42:44.737Z,5.57
2024-01-25T18:45:53.879Z,5.50
2024-01-25T18:49:00.644Z,5.42
2024-01-25T18:52:10.808Z,5.43
2024-01-25T18:55:16.834Z,5.41
2024-01-25T18:58:23.410Z,5.43
2024-01-25T19:01:31.538Z,5.47
2024-01-25T19:04:40.013Z,5.46
2024-01-25T19:07:49.463Z,5.51
2024-01-25T19:10:57.420Z,5.54
2024-01-25T19:14:07.082Z,5.43
2024-01-25T19:17:14.798Z,5.33
2024-01-25T19:20:20.602Z,5.33
2024-01-25T19:23:25.723Z,5.33
2024-01-25T19:26:32.180Z,5.30
2024-01-25T19:29:37.404Z,5.24
2024-01-25T19:32:42.725Z,5.23
2024-01-25T19:35:53.318Z,5.22
2024-01-25T19:39:00.420Z,5.19
2024-01-25T19:42:05.078Z,5.17
2024-01-25T19:45:10.707Z,5.20
2024-01-25T19:48:34.390Z,5.20
2024-01-25T19:51:41.660Z,5.13
2024-01-25T19:54:48.591Z,5.08
2024-01-25T19:57:59.495Z,5.10
2024-01-25T20:01:07.566Z,4.98
2024-01-25T20:04:13.120Z,5.05
2024-01-25T20:07:19.025Z,4.92
2024-01-25T20:10:25.244Z,5.00
2024-01-25T20:13:30.590Z,5.08
2024-01-25T20:16:42.220Z,5.14
2024-01-25T20:19:48.285Z,5.14
2024-01-25T20:22:54.041Z,5.20
2024-01-25T20:25:59.315Z,5.18
2024-01-25T20:29:04.800Z,5.17
2024-01-25T20:32:09.683Z,5.27
2024-01-25T20:35:15.295Z,5.24
2024-01-25T20:38:20.181Z,5.34
2024-01-25T20:41:26.125Z,5.37
2024-01-25T20:44:33.188Z,5.37
2024-01-25T20:47:38.188Z,5.29
2024-01-25T20:50:42.636Z,5.41
2024-01-25T20:53:54.036Z,5.37
2024-01-25T20:57:04.779Z,5.32
2024-01-25T21:00:10.747Z,5.19
2024-01-25T21:03:15.851Z,5.25
2024-01-25T21:06:22.540Z,5.25
2024-01-25T21:09:26.121Z,5.25
2024-01-25T21:12:31.027Z,5.26
2024-01-25T21:15:34.858Z,5.19
2024-01-25T21:18:38.382Z,5.16
2024-01-25T21:21:41.687Z,5.14
2024-01-25T21:24:45.082Z,5.13
2024-01-25T21:27:48.177Z,5.06
2024-01-25T21:30:51.623Z,4.98
2024-01-25T21:33:56.700Z,4.96
2024-01-25T21:37:01.857Z,4.84
2024-01-25T21:40:07.499Z,4.80
2024-01-25T21:43:12.363Z,4.82
2024-01-25T21:46:15.690Z,4.73
2024-01-25T21:49:20.636Z,4.68
2024-01-25T21:52:25.118Z,4.70
2024-01-25T21:55:28.402Z,4.64
2024-01-25T21:58:31.442Z,4.61
2024-01-25T22:01:35.395Z,4.49
2024-01-25T22:04:40.770Z,4.48
2024-01-25T22:07:44.037Z,4.49
2024-01-25T22:10:47.602Z,4.54
2024-01-25T22:13:54.971Z,4.53
2024-01-25T22:16:58.293Z,4.41
2024-01-25T22:20:01.500Z,4.50
2024-01-25T22:23:07.141Z,4.45
2024-01-25T22:26:11.680Z,4.46
2024-01-25T22:29:15.011Z,4.34
2024-01-25T22:32:18.054Z,4.33
2024-01-25T22:35:21.394Z,4.32
2024-01-25T22:38:24.694Z,4.23
2024-01-25T22:41:28.754Z,4.28
2024-01-25T22:44:31.706Z,4.24
2024-01-25T22:47:35.205Z,4.18
2024-01-25T22:50:38.301Z,4.18
2024-01-25T22:53:41.635Z,4.16
2024-01-25T22:56:46.387Z,4.05
2024-01-25T22:59:50.924Z,3.98
2024-01-25T23:02:57.105Z,3.90
2024-01-25T23:06:00.586Z,3.83
2024-01-25T23:09:05.728Z,3.94
2024-01-25T23:12:09.977Z,3.86
2024-01-25T23:15:13.200Z,3.78
2024-01-25T23:18:16.894Z,3.87
2024-01-25T23:21:23.010Z,3.87
2024-01-25T23:24:26.420Z,3.91
2024-01-25T23:27:29.574Z,3.82
2024-01-25T23:30:32.922Z,3.73
2024-01-25T23:33:36.143Z,3.72
2024-01-25T23:36:39.621Z,3.77
2024-01-25T23:39:44.465Z,3.71
2024-01-25T23:42:48.218Z,3.72
2024-01-25T23:45:52.361Z,3.56
2024-01-25T23:48:57.440Z,3.51
2024-01-25T23:52:00.856Z,3.43
2024-01-25T23:55:04.550Z,3.50
2024-01-25T23:58:07.868Z,3.45
